sensor_id;sensor_type;location;lat;lon;timestamp;pressure;altitude;pressure_sealevel;temperature;humidity
41062;BME280;26812;42.662;23.352;2023-03-31T00:02:24;94861.78;;;9.55;53.68
41062;BME280;26812;42.662;23.352;2023-03-31T00:04:50;94875.50;;;9.45;54.29
41062;BME280;26812;42.662;23.352;2023-03-31T00:07:19;94898.22;;;9.30;54.67
41062;BME280;26812;42.662;23.352;2023-03-31T00:09:49;94881.81;;;9.10;55.75
41062;BME280;26812;42.662;23.352;2023-03-31T00:12:19;94883.44;;;9.50;54.58
41062;BME280;26812;42.662;23.352;2023-03-31T00:14:45;94889.94;;;9.49;54.55
41062;BME280;26812;42.662;23.352;2023-03-31T00:17:10;94868.66;;;9.39;54.67
41062;BME280;26812;42.662;23.352;2023-03-31T00:19:36;94892.53;;;9.32;54.82
41062;BME280;26812;42.662;23.352;2023-03-31T00:22:02;94859.47;;;8.78;56.47
41062;BME280;26812;42.662;23.352;2023-03-31T00:24:29;94859.28;;;8.52;57.14
41062;BME280;26812;42.662;23.352;2023-03-31T00:27:02;94890.31;;;8.81;57.10
41062;BME280;26812;42.662;23.352;2023-03-31T00:29:29;94896.97;;;9.06;56.63
41062;BME280;26812;42.662;23.352;2023-03-31T00:32:01;94886.47;;;8.95;56.73
41062;BME280;26812;42.662;23.352;2023-03-31T00:34:27;94877.50;;;9.31;55.67
41062;BME280;26812;42.662;23.352;2023-03-31T00:36:52;94880.31;;;9.57;54.30
41062;BME280;26812;42.662;23.352;2023-03-31T00:39:21;94872.03;;;9.14;55.89
41062;BME280;26812;42.662;23.352;2023-03-31T00:41:47;94874.06;;;9.39;55.49
41062;BME280;26812;42.662;23.352;2023-03-31T00:44:23;94869.88;;;9.24;55.32
41062;BME280;26812;42.662;23.352;2023-03-31T00:47:03;94880.69;;;9.42;55.69
41062;BME280;26812;42.662;23.352;2023-03-31T00:49:38;94876.88;;;9.34;54.78
41062;BME280;26812;42.662;23.352;2023-03-31T00:54:34;94855.94;;;8.91;56.77
41062;BME280;26812;42.662;23.352;2023-03-31T00:57:01;94858.41;;;9.41;55.66
41062;BME280;26812;42.662;23.352;2023-03-31T00:59:34;94840.19;;;9.38;55.10
41062;BME280;26812;42.662;23.352;2023-03-31T01:02:02;94840.22;;;9.47;53.95
41062;BME280;26812;42.662;23.352;2023-03-31T01:04:42;94844.13;;;9.32;54.95
41062;BME280;26812;42.662;23.352;2023-03-31T01:09:38;94851.28;;;9.45;55.12
41062;BME280;26812;42.662;23.352;2023-03-31T01:12:06;94828.47;;;9.25;55.67
41062;BME280;26812;42.662;23.352;2023-03-31T01:14:33;94836.34;;;9.22;55.97
41062;BME280;26812;42.662;23.352;2023-03-31T01:16:58;94819.72;;;9.68;54.65
41062;BME280;26812;42.662;23.352;2023-03-31T01:27:47;94822.69;;;10.23;51.92
41062;BME280;26812;42.662;23.352;2023-03-31T01:30:28;94857.31;;;10.08;52.97
41062;BME280;26812;42.662;23.352;2023-03-31T01:35:51;94861.44;;;10.05;53.04
41062;BME280;26812;42.662;23.352;2023-03-31T01:41:03;94869.38;;;10.10;54.57
41062;BME280;26812;42.662;23.352;2023-03-31T01:51:34;94874.50;;;9.72;54.84
41062;BME280;26812;42.662;23.352;2023-03-31T01:54:20;94888.44;;;10.22;53.47
41062;BME280;26812;42.662;23.352;2023-03-31T01:57:00;94888.81;;;9.99;53.96
41062;BME280;26812;42.662;23.352;2023-03-31T02:02:32;94891.00;;;9.88;55.34
41062;BME280;26812;42.662;23.352;2023-03-31T02:05:10;94883.66;;;10.19;54.68
41062;BME280;26812;42.662;23.352;2023-03-31T02:07:45;94886.69;;;10.26;54.44
41062;BME280;26812;42.662;23.352;2023-03-31T02:10:13;94894.59;;;10.32;53.41
41062;BME280;26812;42.662;23.352;2023-03-31T02:12:41;94897.78;;;10.68;53.21
41062;BME280;26812;42.662;23.352;2023-03-31T02:15:10;94861.59;;;10.09;53.71
41062;BME280;26812;42.662;23.352;2023-03-31T02:17:39;94901.69;;;10.10;54.84
41062;BME280;26812;42.662;23.352;2023-03-31T02:20:11;94902.22;;;10.30;54.39
41062;BME280;26812;42.662;23.352;2023-03-31T02:22:42;94889.59;;;9.99;54.94
41062;BME280;26812;42.662;23.352;2023-03-31T02:25:12;94924.38;;;10.35;54.70
41062;BME280;26812;42.662;23.352;2023-03-31T02:27:42;94925.06;;;10.01;57.83
41062;BME280;26812;42.662;23.352;2023-03-31T02:30:10;94902.56;;;9.80;56.46
41062;BME280;26812;42.662;23.352;2023-03-31T02:32:39;94900.88;;;9.22;60.12
41062;BME280;26812;42.662;23.352;2023-03-31T02:35:08;94903.06;;;9.20;59.83
41062;BME280;26812;42.662;23.352;2023-03-31T02:37:34;94908.53;;;9.37;60.03
41062;BME280;26812;42.662;23.352;2023-03-31T02:40:05;94930.19;;;9.72;59.24
41062;BME280;26812;42.662;23.352;2023-03-31T02:42:36;94920.13;;;9.86;60.11
41062;BME280;26812;42.662;23.352;2023-03-31T02:45:04;94905.88;;;9.85;58.65
41062;BME280;26812;42.662;23.352;2023-03-31T02:47:30;94930.16;;;10.03;58.27
41062;BME280;26812;42.662;23.352;2023-03-31T02:50:02;94932.78;;;10.25;61.55
41062;BME280;26812;42.662;23.352;2023-03-31T02:53:02;94930.97;;;10.12;62.87
41062;BME280;26812;42.662;23.352;2023-03-31T02:58:40;94904.44;;;10.36;62.67
41062;BME280;26812;42.662;23.352;2023-03-31T03:01:20;94908.91;;;10.41;62.71
41062;BME280;26812;42.662;23.352;2023-03-31T03:09:15;94887.97;;;10.89;60.02
41062;BME280;26812;42.662;23.352;2023-03-31T03:20:02;94869.72;;;10.95;61.24
41062;BME280;26812;42.662;23.352;2023-03-31T03:22:32;94864.66;;;11.02;60.94
41062;BME280;26812;42.662;23.352;2023-03-31T03:24:58;94842.75;;;10.95;61.18
41062;BME280;26812;42.662;23.352;2023-03-31T03:27:23;94869.06;;;10.98;61.13
41062;BME280;26812;42.662;23.352;2023-03-31T03:29:49;94854.66;;;10.94;61.16
41062;BME280;26812;42.662;23.352;2023-03-31T03:32:15;94846.13;;;10.75;60.58
41062;BME280;26812;42.662;23.352;2023-03-31T03:34:41;94827.25;;;10.83;59.54
41062;BME280;26812;42.662;23.352;2023-03-31T03:37:06;94863.22;;;10.96;60.29
41062;BME280;26812;42.662;23.352;2023-03-31T03:39:32;94833.94;;;10.77;60.33
41062;BME280;26812;42.662;23.352;2023-03-31T03:41:57;94847.72;;;10.58;61.78
41062;BME280;26812;42.662;23.352;2023-03-31T03:44:23;94858.28;;;10.98;61.93
41062;BME280;26812;42.662;23.352;2023-03-31T03:46:48;94849.88;;;11.00;61.07
41062;BME280;26812;42.662;23.352;2023-03-31T03:49:14;94845.31;;;10.92;60.21
41062;BME280;26812;42.662;23.352;2023-03-31T03:51:39;94842.16;;;10.64;60.18
41062;BME280;26812;42.662;23.352;2023-03-31T03:54:05;94838.06;;;10.23;60.31
41062;BME280;26812;42.662;23.352;2023-03-31T03:56:30;94859.13;;;10.38;60.46
41062;BME280;26812;42.662;23.352;2023-03-31T03:58:56;94848.03;;;10.22;60.57
41062;BME280;26812;42.662;23.352;2023-03-31T04:01:22;94844.69;;;10.17;60.72
41062;BME280;26812;42.662;23.352;2023-03-31T04:03:47;94846.16;;;10.49;60.48
41062;BME280;26812;42.662;23.352;2023-03-31T04:06:13;94849.00;;;10.35;60.47
41062;BME280;26812;42.662;23.352;2023-03-31T04:08:38;94856.75;;;10.37;60.73
41062;BME280;26812;42.662;23.352;2023-03-31T04:11:12;94863.91;;;10.50;61.25
41062;BME280;26812;42.662;23.352;2023-03-31T04:13:38;94845.53;;;10.43;59.04
41062;BME280;26812;42.662;23.352;2023-03-31T04:16:04;94862.94;;;10.63;60.17
41062;BME280;26812;42.662;23.352;2023-03-31T04:18:29;94855.97;;;10.62;60.33
41062;BME280;26812;42.662;23.352;2023-03-31T04:20:54;94873.72;;;10.80;61.50
41062;BME280;26812;42.662;23.352;2023-03-31T04:23:32;94865.28;;;10.91;58.17
41062;BME280;26812;42.662;23.352;2023-03-31T04:25:58;94855.16;;;10.70;58.18
41062;BME280;26812;42.662;23.352;2023-03-31T04:28:25;94862.28;;;10.83;60.26
41062;BME280;26812;42.662;23.352;2023-03-31T04:30:53;94838.03;;;10.83;59.63
41062;BME280;26812;42.662;23.352;2023-03-31T04:33:19;94858.94;;;11.04;59.41
41062;BME280;26812;42.662;23.352;2023-03-31T04:35:48;94832.16;;;10.90;59.43
41062;BME280;26812;42.662;23.352;2023-03-31T04:38:23;94845.16;;;10.88;58.95
41062;BME280;26812;42.662;23.352;2023-03-31T04:40:52;94837.88;;;10.88;59.35
41062;BME280;26812;42.662;23.352;2023-03-31T04:43:19;94838.97;;;10.87;58.95
41062;BME280;26812;42.662;23.352;2023-03-31T04:45:45;94847.22;;;10.91;59.43
41062;BME280;26812;42.662;23.352;2023-03-31T04:48:11;94856.53;;;11.11;59.02
41062;BME280;26812;42.662;23.352;2023-03-31T04:50:37;94826.88;;;11.11;58.80
41062;BME280;26812;42.662;23.352;2023-03-31T04:53:09;94762.19;;;10.47;59.49
41062;BME280;26812;42.662;23.352;2023-03-31T04:55:34;94762.63;;;10.57;59.47
41062;BME280;26812;42.662;23.352;2023-03-31T04:58:02;94826.59;;;11.04;58.16
41062;BME280;26812;42.662;23.352;2023-03-31T05:00:33;94799.63;;;11.04;57.04
41062;BME280;26812;42.662;23.352;2023-03-31T05:02:59;94764.50;;;10.74;57.14
41062;BME280;26812;42.662;23.352;2023-03-31T05:05:26;94796.03;;;10.82;58.46
41062;BME280;26812;42.662;23.352;2023-03-31T05:07:52;94809.81;;;10.81;58.85
41062;BME280;26812;42.662;23.352;2023-03-31T05:10:17;94824.72;;;10.87;59.02
41062;BME280;26812;42.662;23.352;2023-03-31T05:12:45;94806.28;;;10.98;58.73
41062;BME280;26812;42.662;23.352;2023-03-31T05:15:11;94774.44;;;10.91;58.70
41062;BME280;26812;42.662;23.352;2023-03-31T05:17:36;94827.69;;;11.49;58.01
41062;BME280;26812;42.662;23.352;2023-03-31T05:20:02;94809.50;;;11.29;58.02
41062;BME280;26812;42.662;23.352;2023-03-31T05:22:37;94805.13;;;11.16;58.67
41062;BME280;26812;42.662;23.352;2023-03-31T05:25:04;94816.25;;;11.52;58.65
41062;BME280;26812;42.662;23.352;2023-03-31T05:27:30;94794.72;;;11.44;58.29
41062;BME280;26812;42.662;23.352;2023-03-31T05:29:56;94780.75;;;11.42;58.06
41062;BME280;26812;42.662;23.352;2023-03-31T05:32:22;94809.63;;;11.79;57.84
41062;BME280;26812;42.662;23.352;2023-03-31T05:34:48;94778.38;;;11.78;57.21
41062;BME280;26812;42.662;23.352;2023-03-31T05:37:14;94812.00;;;11.81;57.69
41062;BME280;26812;42.662;23.352;2023-03-31T05:39:39;94815.88;;;12.01;57.56
41062;BME280;26812;42.662;23.352;2023-03-31T05:42:05;94757.03;;;11.86;57.32
41062;BME280;26812;42.662;23.352;2023-03-31T05:44:31;94793.94;;;12.02;57.34
41062;BME280;26812;42.662;23.352;2023-03-31T05:46:57;94774.81;;;11.87;57.30
41062;BME280;26812;42.662;23.352;2023-03-31T05:49:22;94794.84;;;12.06;57.53
41062;BME280;26812;42.662;23.352;2023-03-31T05:51:48;94774.47;;;11.88;58.07
41062;BME280;26812;42.662;23.352;2023-03-31T05:54:13;94787.19;;;11.88;58.25
41062;BME280;26812;42.662;23.352;2023-03-31T05:56:39;94822.72;;;12.40;56.89
41062;BME280;26812;42.662;23.352;2023-03-31T05:59:04;94816.59;;;12.10;57.07
41062;BME280;26812;42.662;23.352;2023-03-31T06:01:30;94810.69;;;11.87;56.81
41062;BME280;26812;42.662;23.352;2023-03-31T06:03:56;94818.09;;;12.20;56.23
41062;BME280;26812;42.662;23.352;2023-03-31T06:06:22;94817.44;;;12.43;55.68
41062;BME280;26812;42.662;23.352;2023-03-31T06:08:47;94825.22;;;12.66;55.37
41062;BME280;26812;42.662;23.352;2023-03-31T06:11:16;94817.00;;;12.62;55.05
41062;BME280;26812;42.662;23.352;2023-03-31T06:13:44;94820.75;;;12.49;55.47
41062;BME280;26812;42.662;23.352;2023-03-31T06:16:11;94824.38;;;12.32;56.40
41062;BME280;26812;42.662;23.352;2023-03-31T06:18:37;94782.81;;;12.25;55.35
41062;BME280;26812;42.662;23.352;2023-03-31T06:21:03;94817.19;;;12.16;56.26
41062;BME280;26812;42.662;23.352;2023-03-31T06:23:29;94812.13;;;12.35;56.16
41062;BME280;26812;42.662;23.352;2023-03-31T06:26:02;94804.72;;;12.44;55.32
41062;BME280;26812;42.662;23.352;2023-03-31T06:28:28;94812.25;;;12.38;54.93
41062;BME280;26812;42.662;23.352;2023-03-31T06:31:07;94801.72;;;12.25;55.80
41062;BME280;26812;42.662;23.352;2023-03-31T06:33:34;94826.41;;;12.15;56.38
41062;BME280;26812;42.662;23.352;2023-03-31T06:35:59;94803.59;;;11.74;57.73
41062;BME280;26812;42.662;23.352;2023-03-31T06:38:29;94784.50;;;12.08;56.61
41062;BME280;26812;42.662;23.352;2023-03-31T06:40:55;94798.09;;;12.74;54.63
41062;BME280;26812;42.662;23.352;2023-03-31T06:43:21;94817.69;;;13.04;54.19
41062;BME280;26812;42.662;23.352;2023-03-31T06:45:47;94803.13;;;13.18;53.20
41062;BME280;26812;42.662;23.352;2023-03-31T06:48:12;94819.94;;;13.72;51.80
41062;BME280;26812;42.662;23.352;2023-03-31T06:50:39;94794.66;;;13.92;51.12
41062;BME280;26812;42.662;23.352;2023-03-31T06:53:06;94822.41;;;14.14;50.14
41062;BME280;26812;42.662;23.352;2023-03-31T06:55:31;94828.47;;;14.35;49.37
41062;BME280;26812;42.662;23.352;2023-03-31T06:57:58;94818.66;;;14.30;49.73
41062;BME280;26812;42.662;23.352;2023-03-31T07:00:23;94825.81;;;14.63;48.74
41062;BME280;26812;42.662;23.352;2023-03-31T07:02:50;94804.25;;;15.10;47.28
41062;BME280;26812;42.662;23.352;2023-03-31T07:05:15;94790.09;;;15.01;47.67
41062;BME280;26812;42.662;23.352;2023-03-31T07:07:41;94789.41;;;14.76;49.15
41062;BME280;26812;42.662;23.352;2023-03-31T07:10:06;94787.19;;;16.59;44.45
41062;BME280;26812;42.662;23.352;2023-03-31T07:12:32;94783.72;;;19.01;39.26
41062;BME280;26812;42.662;23.352;2023-03-31T07:14:58;94781.91;;;20.56;35.84
41062;BME280;26812;42.662;23.352;2023-03-31T07:17:23;94759.56;;;21.80;33.37
41062;BME280;26812;42.662;23.352;2023-03-31T07:19:49;94772.66;;;22.95;31.17
41062;BME280;26812;42.662;23.352;2023-03-31T07:22:15;94767.97;;;20.20;35.36
41062;BME280;26812;42.662;23.352;2023-03-31T07:24:40;94746.41;;;23.64;30.87
41062;BME280;26812;42.662;23.352;2023-03-31T07:27:05;94742.72;;;26.09;26.61
41062;BME280;26812;42.662;23.352;2023-03-31T07:29:31;94748.78;;;20.86;32.75
41062;BME280;26812;42.662;23.352;2023-03-31T07:31:56;94748.72;;;20.71;32.81
41062;BME280;26812;42.662;23.352;2023-03-31T07:34:22;94754.78;;;20.33;32.96
41062;BME280;26812;42.662;23.352;2023-03-31T07:36:47;94748.53;;;21.33;32.22
41062;BME280;26812;42.662;23.352;2023-03-31T07:39:12;94743.69;;;23.60;29.28
41062;BME280;26812;42.662;23.352;2023-03-31T07:41:38;94734.75;;;24.38;28.98
41062;BME280;26812;42.662;23.352;2023-03-31T07:44:04;94748.66;;;24.96;27.55
41062;BME280;26812;42.662;23.352;2023-03-31T07:46:30;94720.72;;;26.25;26.03
41062;BME280;26812;42.662;23.352;2023-03-31T07:48:56;94727.41;;;26.71;24.83
41062;BME280;26812;42.662;23.352;2023-03-31T07:51:24;94735.06;;;25.69;26.26
41062;BME280;26812;42.662;23.352;2023-03-31T07:53:51;94731.19;;;26.37;24.03
41062;BME280;26812;42.662;23.352;2023-03-31T07:56:22;94733.63;;;24.32;25.74
41062;BME280;26812;42.662;23.352;2023-03-31T07:58:48;94729.53;;;25.69;23.83
41062;BME280;26812;42.662;23.352;2023-03-31T08:01:15;94721.97;;;24.89;24.98
41062;BME280;26812;42.662;23.352;2023-03-31T08:03:42;94741.69;;;26.22;24.29
41062;BME280;26812;42.662;23.352;2023-03-31T08:06:07;94714.22;;;26.78;24.48
41062;BME280;26812;42.662;23.352;2023-03-31T08:08:32;94705.56;;;26.13;22.78
41062;BME280;26812;42.662;23.352;2023-03-31T08:10:58;94716.06;;;26.65;23.96
41062;BME280;26812;42.662;23.352;2023-03-31T08:13:23;94701.72;;;27.46;23.72
41062;BME280;26812;42.662;23.352;2023-03-31T08:15:49;94706.63;;;26.19;22.96
41062;BME280;26812;42.662;23.352;2023-03-31T08:18:14;94696.09;;;21.31;28.52
41062;BME280;26812;42.662;23.352;2023-03-31T08:20:40;94703.75;;;19.01;32.16
41062;BME280;26812;42.662;23.352;2023-03-31T08:23:06;94700.38;;;18.74;33.03
41062;BME280;26812;42.662;23.352;2023-03-31T08:25:33;94712.63;;;17.97;34.77
41062;BME280;26812;42.662;23.352;2023-03-31T08:27:59;94705.66;;;18.29;34.14
41062;BME280;26812;42.662;23.352;2023-03-31T08:30:25;94702.19;;;20.68;31.47
41062;BME280;26812;42.662;23.352;2023-03-31T08:32:50;94671.41;;;21.17;29.32
41062;BME280;26812;42.662;23.352;2023-03-31T08:35:15;94699.25;;;19.63;31.57
41062;BME280;26812;42.662;23.352;2023-03-31T08:37:41;94690.69;;;20.34;31.89
41062;BME280;26812;42.662;23.352;2023-03-31T08:40:13;94696.34;;;19.93;30.63
41062;BME280;26812;42.662;23.352;2023-03-31T08:42:44;94684.50;;;18.86;32.32
41062;BME280;26812;42.662;23.352;2023-03-31T08:45:26;94697.09;;;19.42;31.16
41062;BME280;26812;42.662;23.352;2023-03-31T08:50:34;94697.31;;;19.23;31.97
41062;BME280;26812;42.662;23.352;2023-03-31T08:53:04;94672.97;;;19.04;32.38
41062;BME280;26812;42.662;23.352;2023-03-31T08:55:56;94696.16;;;19.65;31.94
41062;BME280;26812;42.662;23.352;2023-03-31T09:01:09;94691.88;;;18.82;32.52
41062;BME280;26812;42.662;23.352;2023-03-31T09:06:41;94657.72;;;18.99;32.63
41062;BME280;26812;42.662;23.352;2023-03-31T09:09:22;94672.09;;;18.25;33.26
41062;BME280;26812;42.662;23.352;2023-03-31T09:11:53;94660.75;;;17.14;35.17
41062;BME280;26812;42.662;23.352;2023-03-31T09:14:35;94647.06;;;16.65;36.05
41062;BME280;26812;42.662;23.352;2023-03-31T09:17:23;94668.47;;;17.12;35.51
41062;BME280;26812;42.662;23.352;2023-03-31T09:19:58;94666.00;;;17.03;35.65
41062;BME280;26812;42.662;23.352;2023-03-31T09:22:33;94661.59;;;17.18;35.42
41062;BME280;26812;42.662;23.352;2023-03-31T09:25:22;94659.31;;;17.99;33.86
41062;BME280;26812;42.662;23.352;2023-03-31T09:27:54;94665.75;;;18.48;33.05
41062;BME280;26812;42.662;23.352;2023-03-31T09:30:26;94642.47;;;18.95;32.08
41062;BME280;26812;42.662;23.352;2023-03-31T09:33:02;94650.84;;;19.60;31.24
41062;BME280;26812;42.662;23.352;2023-03-31T09:35:44;94661.78;;;20.36;29.79
41062;BME280;26812;42.662;23.352;2023-03-31T09:38:11;94656.91;;;19.94;30.07
41062;BME280;26812;42.662;23.352;2023-03-31T09:40:38;94658.63;;;20.31;30.81
41062;BME280;26812;42.662;23.352;2023-03-31T09:43:13;94641.38;;;20.20;29.70
41062;BME280;26812;42.662;23.352;2023-03-31T09:45:40;94656.28;;;20.33;29.74
41062;BME280;26812;42.662;23.352;2023-03-31T09:48:15;94653.31;;;20.66;29.30
41062;BME280;26812;42.662;23.352;2023-03-31T09:50:48;94609.41;;;20.38;30.30
41062;BME280;26812;42.662;23.352;2023-03-31T09:53:20;94623.69;;;21.47;28.74
41062;BME280;26812;42.662;23.352;2023-03-31T09:55:52;94643.59;;;21.72;27.62
41062;BME280;26812;42.662;23.352;2023-03-31T09:58:18;94619.72;;;21.12;28.42
41062;BME280;26812;42.662;23.352;2023-03-31T10:01:01;94642.41;;;21.09;29.53
41062;BME280;26812;42.662;23.352;2023-03-31T10:03:28;94640.44;;;20.85;29.31
41062;BME280;26812;42.662;23.352;2023-03-31T10:06:01;94639.69;;;21.05;29.55
41062;BME280;26812;42.662;23.352;2023-03-31T10:08:37;94630.63;;;21.94;28.21
41062;BME280;26812;42.662;23.352;2023-03-31T10:16:05;94593.47;;;20.58;28.51
41062;BME280;26812;42.662;23.352;2023-03-31T10:18:38;94620.81;;;22.00;27.84
41062;BME280;26812;42.662;23.352;2023-03-31T10:21:06;94613.41;;;22.04;27.33
41062;BME280;26812;42.662;23.352;2023-03-31T10:23:33;94617.72;;;21.91;27.96
41062;BME280;26812;42.662;23.352;2023-03-31T10:26:00;94603.69;;;21.60;27.81
41062;BME280;26812;42.662;23.352;2023-03-31T10:28:30;94609.84;;;22.14;27.62
41062;BME280;26812;42.662;23.352;2023-03-31T10:30:58;94600.84;;;22.10;28.01
41062;BME280;26812;42.662;23.352;2023-03-31T10:33:32;94603.31;;;21.41;28.32
41062;BME280;26812;42.662;23.352;2023-03-31T10:36:07;94597.06;;;21.36;28.18
41062;BME280;26812;42.662;23.352;2023-03-31T10:38:38;94561.06;;;21.17;28.41
41062;BME280;26812;42.662;23.352;2023-03-31T10:41:08;94581.41;;;21.48;27.81
41062;BME280;26812;42.662;23.352;2023-03-31T10:43:47;94571.22;;;20.91;28.48
41062;BME280;26812;42.662;23.352;2023-03-31T10:46:14;94581.75;;;21.11;29.07
41062;BME280;26812;42.662;23.352;2023-03-31T10:48:41;94589.22;;;21.17;28.67
41062;BME280;26812;42.662;23.352;2023-03-31T10:51:19;94569.97;;;20.42;29.80
41062;BME280;26812;42.662;23.352;2023-03-31T10:53:48;94584.38;;;20.29;29.77
41062;BME280;26812;42.662;23.352;2023-03-31T10:56:45;94586.81;;;20.52;30.20
41062;BME280;26812;42.662;23.352;2023-03-31T11:02:34;94556.72;;;21.48;28.31
41062;BME280;26812;42.662;23.352;2023-03-31T11:05:58;94571.94;;;21.63;28.52
41062;BME280;26812;42.662;23.352;2023-03-31T11:40:47;94526.56;;;21.55;28.75
41062;BME280;26812;42.662;23.352;2023-03-31T11:43:31;94527.00;;;20.96;29.41
41062;BME280;26812;42.662;23.352;2023-03-31T11:48:47;94520.72;;;21.10;29.32
41062;BME280;26812;42.662;23.352;2023-03-31T11:51:47;94507.06;;;20.96;30.13
41062;BME280;26812;42.662;23.352;2023-03-31T11:57:01;94515.28;;;20.92;28.95
41062;BME280;26812;42.662;23.352;2023-03-31T11:59:31;94509.75;;;21.38;29.27
41062;BME280;26812;42.662;23.352;2023-03-31T12:03:18;94501.00;;;21.86;28.26
41062;BME280;26812;42.662;23.352;2023-03-31T12:05:14;94483.38;;;21.84;28.05
41062;BME280;26812;42.662;23.352;2023-03-31T12:08:05;94492.72;;;21.93;27.85
41062;BME280;26812;42.662;23.352;2023-03-31T12:10:37;94490.47;;;21.67;27.75
41062;BME280;26812;42.662;23.352;2023-03-31T12:16:18;94469.97;;;22.07;28.56
41062;BME280;26812;42.662;23.352;2023-03-31T12:19:05;94478.69;;;21.84;28.74
41062;BME280;26812;42.662;23.352;2023-03-31T12:21:34;94474.91;;;21.50;29.57
41062;BME280;26812;42.662;23.352;2023-03-31T12:24:01;94473.13;;;22.06;28.12
41062;BME280;26812;42.662;23.352;2023-03-31T12:29:08;94464.34;;;22.28;27.62
41062;BME280;26812;42.662;23.352;2023-03-31T12:31:39;94444.06;;;22.15;27.70
41062;BME280;26812;42.662;23.352;2023-03-31T12:34:12;94461.16;;;22.34;27.16
41062;BME280;26812;42.662;23.352;2023-03-31T12:45:05;94465.59;;;22.17;27.51
41062;BME280;26812;42.662;23.352;2023-03-31T12:50:35;94444.47;;;22.62;27.53
41062;BME280;26812;42.662;23.352;2023-03-31T12:56:07;94413.69;;;22.88;26.86
41062;BME280;26812;42.662;23.352;2023-03-31T13:01:21;94389.47;;;21.62;28.37
41062;BME280;26812;42.662;23.352;2023-03-31T13:03:48;94409.25;;;22.05;28.60
41062;BME280;26812;42.662;23.352;2023-03-31T13:14:00;94371.81;;;20.58;30.42
41062;BME280;26812;42.662;23.352;2023-03-31T13:16:28;94390.38;;;21.37;29.57
41062;BME280;26812;42.662;23.352;2023-03-31T13:18:54;94348.22;;;21.87;27.92
41062;BME280;26812;42.662;23.352;2023-03-31T13:21:21;94336.75;;;21.99;27.54
41062;BME280;26812;42.662;23.352;2023-03-31T13:23:47;94333.16;;;22.13;27.26
41062;BME280;26812;42.662;23.352;2023-03-31T13:34:39;94317.09;;;20.19;30.46
41062;BME280;26812;42.662;23.352;2023-03-31T13:40:50;94315.91;;;19.66;32.36
41062;BME280;26812;42.662;23.352;2023-03-31T13:48:48;94297.94;;;20.40;31.21
41062;BME280;26812;42.662;23.352;2023-03-31T13:54:20;94293.16;;;20.76;29.83
41062;BME280;26812;42.662;23.352;2023-03-31T14:05:38;94286.09;;;20.78;30.36
41062;BME280;26812;42.662;23.352;2023-03-31T14:08:09;94280.59;;;20.93;29.71
41062;BME280;26812;42.662;23.352;2023-03-31T14:10:38;94280.13;;;21.08;29.29
41062;BME280;26812;42.662;23.352;2023-03-31T14:13:16;94251.25;;;20.93;29.79
41062;BME280;26812;42.662;23.352;2023-03-31T14:15:56;94283.78;;;20.70;30.54
41062;BME280;26812;42.662;23.352;2023-03-31T14:18:29;94278.03;;;20.29;30.63
41062;BME280;26812;42.662;23.352;2023-03-31T14:31:27;94266.72;;;19.98;31.69
41062;BME280;26812;42.662;23.352;2023-03-31T14:39:24;94253.22;;;20.93;30.04
41062;BME280;26812;42.662;23.352;2023-03-31T14:41:53;94235.13;;;21.13;29.88
41062;BME280;26812;42.662;23.352;2023-03-31T14:44:19;94256.63;;;21.11;29.62
41062;BME280;26812;42.662;23.352;2023-03-31T14:46:45;94238.00;;;20.81;29.92
41062;BME280;26812;42.662;23.352;2023-03-31T14:49:22;94233.41;;;20.57;31.50
41062;BME280;26812;42.662;23.352;2023-03-31T14:51:51;94234.88;;;20.86;30.47
41062;BME280;26812;42.662;23.352;2023-03-31T14:54:19;94234.31;;;21.16;29.20
41062;BME280;26812;42.662;23.352;2023-03-31T14:56:51;94224.66;;;20.94;29.23
41062;BME280;26812;42.662;23.352;2023-03-31T14:59:22;94233.16;;;19.66;31.34
41062;BME280;26812;42.662;23.352;2023-03-31T15:01:49;94224.88;;;19.16;32.16
41062;BME280;26812;42.662;23.352;2023-03-31T15:04:20;94197.59;;;19.09;32.33
41062;BME280;26812;42.662;23.352;2023-03-31T15:06:48;94226.13;;;19.58;32.23
41062;BME280;26812;42.662;23.352;2023-03-31T15:09:27;94199.56;;;19.87;31.69
41062;BME280;26812;42.662;23.352;2023-03-31T15:11:59;94234.25;;;19.15;32.61
41062;BME280;26812;42.662;23.352;2023-03-31T15:14:30;94227.56;;;18.91;33.24
41062;BME280;26812;42.662;23.352;2023-03-31T15:16:58;94228.41;;;19.13;33.22
41062;BME280;26812;42.662;23.352;2023-03-31T15:19:32;94225.72;;;19.59;33.26
41062;BME280;26812;42.662;23.352;2023-03-31T15:22:10;94216.75;;;19.59;32.52
41062;BME280;26812;42.662;23.352;2023-03-31T15:24:38;94219.88;;;19.75;31.98
41062;BME280;26812;42.662;23.352;2023-03-31T15:29:48;94212.84;;;19.38;32.87
41062;BME280;26812;42.662;23.352;2023-03-31T15:32:26;94207.72;;;19.19;33.17
41062;BME280;26812;42.662;23.352;2023-03-31T15:34:59;94207.72;;;19.26;32.84
41062;BME280;26812;42.662;23.352;2023-03-31T15:37:33;94217.91;;;19.40;33.00
41062;BME280;26812;42.662;23.352;2023-03-31T15:40:03;94207.34;;;19.20;32.59
41062;BME280;26812;42.662;23.352;2023-03-31T15:42:33;94207.38;;;19.45;33.14
41062;BME280;26812;42.662;23.352;2023-03-31T15:47:53;94211.66;;;19.39;33.19
41062;BME280;26812;42.662;23.352;2023-03-31T15:50:20;94207.75;;;19.47;32.91
41062;BME280;26812;42.662;23.352;2023-03-31T15:52:51;94215.53;;;19.28;33.12
41062;BME280;26812;42.662;23.352;2023-03-31T15:55:39;94210.47;;;19.26;33.37
41062;BME280;26812;42.662;23.352;2023-03-31T15:58:10;94205.78;;;19.05;33.66
41062;BME280;26812;42.662;23.352;2023-03-31T16:00:45;94197.19;;;19.24;33.42
41062;BME280;26812;42.662;23.352;2023-03-31T16:03:34;94215.91;;;19.12;33.62
41062;BME280;26812;42.662;23.352;2023-03-31T16:06:17;94210.44;;;19.08;33.25
41062;BME280;26812;42.662;23.352;2023-03-31T16:08:52;94219.41;;;18.98;33.57